Time;durP1;ratioP1;P1;durP2;ratioP2;P2;SDS_P1;SDS_P2;PMS_P1;PMS_P2;Temp;Humidity;BMP_temperature;BMP_pressure;BME280_temperature;BME280_humidity;BME280_pressure;Samples;Min_cycle;Max_cycle;Signal;HPM_P1;HPM_P2
2021/01/19 00:00:56;;;;;;;33.37;17.17;;;;;;;-14.05;69.13;100110.03;1735290;82;21781;-64
2021/01/19 00:03:23;;;;;;;35.97;17.20;;;;;;;-14.07;69.27;100100.23;1735275;82;21893;-64
2021/01/19 00:05:50;;;;;;;33.13;17.10;;;;;;;-14.13;69.32;100105.73;1744044;82;22480;-63
2021/01/19 00:08:18;;;;;;;23.17;11.10;;;;;;;-14.14;69.51;100103.59;1726449;82;21820;-64
2021/01/19 00:10:46;;;;;;;46.00;20.47;;;;;;;-14.21;69.58;100099.70;1724242;82;21206;-66
2021/01/19 00:13:20;;;;;;;41.43;19.47;;;;;;;-14.29;69.70;100107.05;1734713;82;21681;-65
2021/01/19 00:15:44;;;;;;;34.77;19.03;;;;;;;-14.31;69.88;100105.83;1742344;82;21409;-64
2021/01/19 00:18:11;;;;;;;31.83;18.30;;;;;;;-14.31;69.97;100104.99;1738951;82;22474;-63
2021/01/19 00:20:40;;;;;;;27.97;14.70;;;;;;;-14.27;70.17;100108.61;1734653;82;21492;-66
2021/01/19 00:23:07;;;;;;;32.87;17.87;;;;;;;-14.24;70.17;100111.50;1734833;82;21446;-65
2021/01/19 00:25:37;;;;;;;40.53;21.53;;;;;;;-14.18;70.12;100109.86;1741620;81;21294;-67
2021/01/19 00:28:05;;;;;;;31.60;18.30;;;;;;;-14.11;70.11;100107.78;1735785;82;21397;-67
2021/01/19 00:30:35;;;;;;;40.00;20.50;;;;;;;-13.91;70.19;100108.81;1739837;82;21438;-65
2021/01/19 00:33:03;;;;;;;45.80;20.67;;;;;;;-13.80;69.92;100108.56;1735748;82;21839;-66
2021/01/19 00:35:30;;;;;;;41.57;18.13;;;;;;;-13.72;69.63;100101.69;1741879;82;21204;-66
2021/01/19 00:37:59;;;;;;;36.53;17.93;;;;;;;-13.75;69.37;100106.55;1741599;82;21187;-65
2021/01/19 00:40:30;;;;;;;33.77;19.17;;;;;;;-13.77;69.22;100101.11;1734821;82;21352;-65
2021/01/19 00:42:58;;;;;;;27.60;17.83;;;;;;;-13.73;69.37;100099.56;1734875;82;22264;-65
2021/01/19 00:45:25;;;;;;;40.23;19.83;;;;;;;-13.65;69.02;100099.11;1735429;82;21466;-66
2021/01/19 00:47:53;;;;;;;37.47;19.20;;;;;;;-13.70;68.91;100093.37;1734678;82;21303;-67
2021/01/19 00:50:21;;;;;;;34.20;19.47;;;;;;;-13.71;68.91;100087.36;1734905;82;21302;-67
2021/01/19 00:52:48;;;;;;;38.97;19.87;;;;;;;-13.65;68.98;100085.34;1737498;82;21520;-70
2021/01/19 00:55:16;;;;;;;41.87;19.70;;;;;;;-13.59;68.82;100085.00;1739045;82;21396;-71
2021/01/19 00:57:46;;;;;;;41.53;21.33;;;;;;;-13.49;68.97;100088.27;1745825;81;21349;-66
2021/01/19 01:00:17;;;;;;;27.63;16.23;;;;;;;-13.36;68.66;100085.80;1708175;82;21892;-65
2021/01/19 01:02:44;;;;;;;28.00;16.70;;;;;;;-13.28;68.50;100080.54;1734467;82;21297;-65
2021/01/19 01:05:12;;;;;;;39.67;19.63;;;;;;;-13.23;68.07;100088.03;1734964;82;21396;-63
2021/01/19 01:07:41;;;;;;;38.83;21.90;;;;;;;-13.31;67.85;100085.91;1735346;82;22001;-68
2021/01/19 01:10:12;;;;;;;37.33;19.17;;;;;;;-13.31;67.75;100081.19;1738004;82;21281;-67
2021/01/19 01:12:41;;;;;;;41.07;17.27;;;;;;;-13.31;67.52;100074.72;1726206;81;21452;-65
2021/01/19 01:15:11;;;;;;;45.23;21.60;;;;;;;-13.30;67.49;100079.81;1746008;81;21250;-64
2021/01/19 01:17:40;;;;;;;39.93;19.30;;;;;;;-13.26;67.48;100068.81;1735363;82;21942;-64
2021/01/19 01:20:09;;;;;;;39.40;18.77;;;;;;;-13.19;67.30;100069.30;1735823;82;21351;-68
2021/01/19 01:22:42;;;;;;;44.40;17.73;;;;;;;-13.18;67.05;100062.72;1741188;82;21111;-69
2021/01/19 01:25:12;;;;;;;35.52;17.90;;;;;;;-13.18;66.84;100067.89;1735453;82;21113;-68
2021/01/19 01:27:41;;;;;;;39.20;21.00;;;;;;;-13.28;66.66;100065.47;1740440;82;21257;-69
2021/01/19 01:30:10;;;;;;;35.13;20.27;;;;;;;-13.40;66.64;100064.91;1747685;82;21387;-68
2021/01/19 01:32:48;;;;;;;42.93;21.63;;;;;;;-13.48;66.75;100067.97;1737948;82;21802;-68
2021/01/19 01:35:15;;;;;;;35.87;18.47;;;;;;;-13.46;66.99;100069.98;1734489;82;21414;-66
2021/01/19 01:37:48;;;;;;;48.23;19.53;;;;;;;-13.43;66.87;100072.87;1735274;82;21266;-66
2021/01/19 01:40:24;;;;;;;;;;;;;;;-13.48;66.87;100071.84;1737400;82;21787;-64
2021/01/19 01:42:55;;;;;;;36.50;18.60;;;;;;;-13.42;66.95;100070.17;1735900;82;20251;-67
2021/01/19 01:45:26;;;;;;;47.13;21.37;;;;;;;-13.34;66.96;100078.80;1741669;81;21376;-66
2021/01/19 01:47:56;;;;;;;38.63;20.00;;;;;;;-13.29;66.81;100075.47;1735476;82;21387;-65
2021/01/19 01:50:23;;;;;;;35.47;19.83;;;;;;;-13.28;66.71;100072.78;1734694;82;21348;-65
2021/01/19 01:52:51;;;;;;;33.97;17.53;;;;;;;-13.26;66.67;100067.52;1734617;82;21313;-65
2021/01/19 01:55:19;;;;;;;27.90;13.97;;;;;;;-13.21;66.56;100072.42;1734661;82;21400;-66
2021/01/19 01:57:47;;;;;;;41.13;20.30;;;;;;;-13.30;66.41;100068.63;1734589;82;21640;-67
2021/01/19 02:00:16;;;;;;;33.10;17.30;;;;;;;-13.35;66.57;100066.77;1723486;82;21936;-65
2021/01/19 02:02:54;;;;;;;46.03;20.93;;;;;;;-13.37;66.57;100065.56;1705170;84;21216;-67
2021/01/19 02:05:22;;;;;;;29.73;17.13;;;;;;;-13.36;66.74;100080.63;1704902;84;21300;-68
2021/01/19 02:08:12;;;;;;;31.90;16.07;;;;;;;-13.32;66.63;100081.64;1720035;82;21427;-65
2021/01/19 02:11:30;;;;;;;34.67;18.33;;;;;;;-13.37;66.59;100082.38;1693910;84;21821;-66
2021/01/19 02:14:09;;;;;;;36.50;16.10;;;;;;;-13.44;66.65;100078.49;1706566;84;21424;-64
2021/01/19 02:17:18;;;;;;;36.57;17.77;;;;;;;-13.56;66.82;100077.06;1706703;84;21843;-66
2021/01/19 02:20:36;;;;;;;38.30;22.13;;;;;;;-13.61;67.02;100068.27;1717738;82;21300;-65
2021/01/19 02:23:45;;;;;;;28.53;14.87;;;;;;;-13.67;67.17;100063.94;1735874;82;21450;-65
2021/01/19 02:26:49;;;;;;;29.23;16.63;;;;;;;-13.75;67.34;100074.70;1735827;82;22284;-64
2021/01/19 02:29:59;;;;;;;34.90;18.33;;;;;;;-13.86;67.57;100067.55;1733157;82;21709;-65
2021/01/19 02:32:44;;;;;;;35.50;18.33;;;;;;;-13.99;67.85;100061.87;1735833;82;21410;-67
2021/01/19 02:35:28;;;;;;;37.57;18.00;;;;;;;-13.99;68.18;100069.16;1723227;83;21374;-65
2021/01/19 02:38:16;;;;;;;32.40;16.90;;;;;;;-13.95;68.33;100068.52;1736042;82;21361;-67
2021/01/19 02:40:46;;;;;;;31.93;15.17;;;;;;;-13.92;68.39;100070.50;1723113;83;21392;-64
2021/01/19 02:43:23;;;;;;;33.83;18.17;;;;;;;-13.81;68.53;100064.73;1723223;83;21881;-65
2021/01/19 02:45:49;;;;;;;30.67;16.27;;;;;;;-13.65;68.64;100063.38;1723316;82;21110;-66
2021/01/19 02:48:17;;;;;;;30.10;16.60;;;;;;;-13.51;68.31;100071.16;1723360;83;21272;-64
2021/01/19 02:50:44;;;;;;;35.93;19.33;;;;;;;-13.49;68.09;100062.41;1723347;83;21288;-65
2021/01/19 02:53:12;;;;;;;32.50;17.03;;;;;;;-13.42;68.13;100064.16;1723380;83;22219;-65
2021/01/19 02:55:41;;;;;;;30.90;13.33;;;;;;;-13.35;67.90;100063.73;1723204;83;21716;-67
2021/01/19 02:58:45;;;;;;;38.33;17.60;;;;;;;-13.35;67.60;100055.97;1723242;83;21350;-65
2021/01/19 03:01:24;;;;;;;36.17;19.17;;;;;;;-13.49;67.18;100061.12;1731007;82;21372;-64
2021/01/19 03:03:51;;;;;;;27.73;13.80;;;;;;;-13.65;67.41;100061.63;1730087;82;21448;-65
2021/01/19 03:06:20;;;;;;;27.57;14.93;;;;;;;-13.66;67.46;100064.28;1730968;82;21286;-66
2021/01/19 03:08:48;;;;;;;34.90;20.53;;;;;;;-13.65;67.50;100069.84;1730927;82;21454;-65
2021/01/19 03:11:18;;;;;;;34.23;18.67;;;;;;;-13.61;67.64;100064.39;1718257;82;21424;-64
2021/01/19 03:13:48;;;;;;;26.83;15.03;;;;;;;-13.51;67.46;100065.99;1731015;82;21432;-65
2021/01/19 03:16:17;;;;;;;22.23;12.77;;;;;;;-13.55;67.25;100071.81;1730901;82;21915;-64
2021/01/19 03:18:46;;;;;;;23.67;11.73;;;;;;;-13.64;67.13;100074.09;1731043;82;21336;-65
2021/01/19 03:21:14;;;;;;;26.37;17.17;;;;;;;-13.73;67.25;100074.16;1739774;82;21282;-66
2021/01/19 03:23:41;;;;;;;30.13;16.73;;;;;;;-13.78;67.37;100074.89;1730905;82;21230;-65
2021/01/19 03:26:09;;;;;;;29.33;15.50;;;;;;;-13.77;67.61;100072.22;1730977;82;21495;-65
2021/01/19 03:28:39;;;;;;;38.83;18.43;;;;;;;-13.71;67.46;100074.89;1746272;82;21437;-66
2021/01/19 03:31:07;;;;;;;25.60;15.27;;;;;;;-13.71;67.53;100076.19;1731268;82;21492;-65
2021/01/19 03:33:34;;;;;;;32.13;16.83;;;;;;;-13.66;67.58;100077.21;1746141;82;21434;-72
2021/01/19 03:36:02;;;;;;;29.10;14.70;;;;;;;-13.58;67.56;100074.58;1730894;82;21459;-66
2021/01/19 03:38:29;;;;;;;33.90;17.27;;;;;;;-13.52;67.25;100072.11;1746316;82;21788;-66
2021/01/19 03:40:57;;;;;;;27.00;14.33;;;;;;;-13.53;67.15;100075.16;1701764;84;21767;-65
2021/01/19 03:43:24;;;;;;;16.00;8.87;;;;;;;-13.56;67.04;100068.84;1746160;82;22196;-66
2021/01/19 03:45:59;;;;;;;26.50;13.50;;;;;;;-13.65;66.81;100061.63;1700280;84;21419;-66
2021/01/19 03:48:26;;;;;;;27.23;14.60;;;;;;;-13.79;66.73;100068.88;1746003;82;21743;-65
2021/01/19 03:50:54;;;;;;;17.90;12.97;;;;;;;-13.91;66.93;100073.47;1731149;82;21273;-66
2021/01/19 03:53:21;;;;;;;35.33;16.70;;;;;;;-13.98;67.11;100071.30;1746393;82;21189;-65
2021/01/19 03:55:48;;;;;;;17.33;10.30;;;;;;;-14.00;67.17;100069.27;1731082;82;21423;-65
2021/01/19 03:58:16;;;;;;;24.33;14.77;;;;;;;-13.98;67.25;100071.30;1731144;82;21387;-66
2021/01/19 04:00:43;;;;;;;29.43;15.83;;;;;;;-14.07;67.31;100070.52;1730937;82;21231;-65
2021/01/19 04:03:11;;;;;;;29.87;17.40;;;;;;;-14.13;67.38;100074.27;1732315;82;21268;-66
2021/01/19 04:05:39;;;;;;;27.13;14.80;;;;;;;-14.16;67.53;100064.95;1732799;82;21291;-65
2021/01/19 04:08:06;;;;;;;22.77;13.30;;;;;;;-14.09;67.63;100069.30;1732436;82;21356;-66
2021/01/19 04:10:34;;;;;;;26.83;15.10;;;;;;;-14.02;67.62;100068.05;1732356;82;21381;-66
2021/01/19 04:13:02;;;;;;;24.17;10.90;;;;;;;-13.97;67.38;100066.50;1732388;82;21197;-66
2021/01/19 04:15:29;;;;;;;27.53;14.20;;;;;;;-14.00;67.13;100070.08;1733001;82;21238;-64
2021/01/19 04:17:57;;;;;;;25.00;14.53;;;;;;;-14.13;67.00;100069.56;1712008;82;22000;-65
2021/01/19 04:20:24;;;;;;;27.67;12.17;;;;;;;-14.23;67.10;100070.07;1699323;82;21389;-64
2021/01/19 04:22:52;;;;;;;27.90;15.10;;;;;;;-14.29;67.15;100071.69;1734711;82;21408;-67
2021/01/19 04:25:19;;;;;;;29.53;14.37;;;;;;;-14.39;67.26;100065.88;1723750;82;21429;-66
2021/01/19 04:27:47;;;;;;;27.97;14.30;;;;;;;-14.49;67.38;100066.84;1707808;82;21922;-66
2021/01/19 04:30:16;;;;;;;21.80;11.43;;;;;;;-14.51;67.46;100071.69;1741102;82;21376;-66
2021/01/19 04:32:45;;;;;;;22.83;12.93;;;;;;;-14.51;67.51;100068.66;1745429;82;21422;-67
2021/01/19 04:35:14;;;;;;;19.97;12.37;;;;;;;-14.56;67.48;100069.36;1734762;82;21239;-66
2021/01/19 04:37:42;;;;;;;20.97;11.23;;;;;;;-14.61;67.47;100072.65;1735099;82;21255;-65
2021/01/19 04:40:11;;;;;;;23.00;12.10;;;;;;;-14.71;67.52;100073.59;1734960;82;21260;-63
2021/01/19 04:42:39;;;;;;;26.83;14.73;;;;;;;-14.79;67.70;100077.50;1734723;82;21509;-65
2021/01/19 04:45:09;;;;;;;24.37;12.53;;;;;;;-14.79;67.91;100089.95;1734710;82;21408;-66
2021/01/19 04:47:37;;;;;;;19.27;11.93;;;;;;;-14.74;67.80;100080.22;1734792;82;21875;-65
2021/01/19 04:50:08;;;;;;;22.07;13.18;;;;;;;-14.74;67.83;100086.67;1734978;82;21394;-66
2021/01/19 04:52:39;;;;;;;30.90;13.97;;;;;;;-14.73;67.77;100082.34;1734803;82;21601;-65
2021/01/19 04:55:10;;;;;;;26.93;12.40;;;;;;;-14.73;67.66;100082.34;1734201;82;21860;-67
2021/01/19 04:57:40;;;;;;;19.40;11.30;;;;;;;-14.81;67.57;100088.35;1740968;82;21367;-65
2021/01/19 05:00:13;;;;;;;17.02;10.50;;;;;;;-14.87;67.74;100088.24;1734653;82;21579;-64
2021/01/19 05:03:04;;;;;;;27.15;14.80;;;;;;;-14.94;67.76;100084.30;1735778;82;21618;-65
2021/01/19 05:05:49;;;;;;;26.17;13.62;;;;;;;-15.03;67.87;100087.36;1717903;83;21034;-66
2021/01/19 05:08:24;;;;;;;25.88;14.45;;;;;;;-15.06;68.04;100092.20;1734562;82;21124;-64
2021/01/19 05:11:02;;;;;;;23.70;12.35;;;;;;;-15.10;68.13;100098.44;1734702;82;21215;-68
2021/01/19 05:13:55;;;;;;;26.23;14.75;;;;;;;-15.08;68.29;100104.81;1734691;82;21180;-66
2021/01/19 05:16:32;;;;;;;22.25;9.65;;;;;;;-15.02;68.39;100095.94;1734934;82;21117;-66
2021/01/19 05:19:04;;;;;;;28.05;12.85;;;;;;;-14.99;68.25;100105.63;1734554;82;21129;-65
2021/01/19 05:21:38;;;;;;;25.00;14.80;;;;;;;-15.09;68.14;100107.02;1734951;82;21129;-65
2021/01/19 05:24:07;;;;;;;23.27;14.35;;;;;;;-15.14;68.29;100106.41;1734682;82;21257;-64
2021/01/19 05:26:35;;;;;;;29.50;14.78;;;;;;;-15.18;68.35;100102.33;1734649;82;21203;-65
2021/01/19 05:29:04;;;;;;;21.87;10.95;;;;;;;-15.15;68.39;100112.48;1747034;82;21143;-64
2021/01/19 05:31:32;;;;;;;26.17;15.45;;;;;;;-15.17;68.34;100110.45;1747595;82;21139;-66
2021/01/19 05:34:09;;;;;;;23.67;13.13;;;;;;;-15.20;68.33;100115.29;1747534;82;21179;-65
2021/01/19 05:36:48;;;;;;;22.65;11.48;;;;;;;-15.21;68.28;100104.63;1747507;82;21209;-67
2021/01/19 05:39:20;;;;;;;30.70;15.98;;;;;;;-15.27;68.20;100102.80;1725906;82;21629;-65
2021/01/19 05:41:54;;;;;;;25.15;14.35;;;;;;;-15.29;68.31;100105.89;1734514;82;21125;-66
2021/01/19 05:44:32;;;;;;;21.35;11.78;;;;;;;-15.24;68.39;100112.94;1734863;82;21143;-65
2021/01/19 05:47:04;;;;;;;20.05;11.05;;;;;;;-15.20;68.25;100105.45;1734814;82;21204;-64
2021/01/19 05:49:38;;;;;;;32.42;14.38;;;;;;;-15.23;68.21;100118.03;1737913;82;21374;-65
2021/01/19 05:52:14;;;;;;;27.13;14.07;;;;;;;-15.22;68.12;100114.55;1747690;82;21524;-67
2021/01/19 05:54:46;;;;;;;20.75;12.63;;;;;;;-15.28;68.00;100112.27;1746911;82;21671;-67
2021/01/19 05:57:22;;;;;;;17.32;10.88;;;;;;;-15.26;68.06;100109.17;1717846;83;21157;-66
2021/01/19 05:59:56;;;;;;;22.93;13.53;;;;;;;-15.31;67.89;100112.89;1728062;81;21609;-66
2021/01/19 06:02:41;;;;;;;18.57;8.43;;;;;;;-15.43;67.96;100116.91;1713206;83;21168;-65
2021/01/19 06:05:12;;;;;;;27.22;14.03;;;;;;;-15.46;68.15;100123.51;1716394;83;21602;-65
2021/01/19 06:07:44;;;;;;;23.40;11.40;;;;;;;-15.47;68.18;100115.39;1720594;82;21030;-67
2021/01/19 06:10:19;;;;;;;20.35;12.58;;;;;;;-15.44;68.23;100105.40;1742346;82;21133;-68
2021/01/19 06:12:48;;;;;;;23.65;14.45;;;;;;;-15.41;68.30;100112.52;1746369;82;21042;-66
2021/01/19 06:15:20;;;;;;;30.55;14.60;;;;;;;-15.34;68.33;100111.73;1746196;82;22485;-65
2021/01/19 06:17:47;;;;;;;28.45;12.90;;;;;;;-15.28;68.17;100112.73;1724243;82;21165;-66
2021/01/19 06:20:15;;;;;;;29.85;14.03;;;;;;;-15.17;68.26;100113.03;1745866;82;21169;-66
2021/01/19 06:22:43;;;;;;;33.65;14.68;;;;;;;-15.02;68.20;100115.28;1746003;82;21196;-65
2021/01/19 06:25:13;;;;;;;33.35;15.80;;;;;;;-14.96;67.93;100116.27;1746214;82;21193;-66
2021/01/19 06:27:40;;;;;;;24.57;12.07;;;;;;;-14.90;67.91;100119.80;1746078;82;21382;-67
2021/01/19 06:30:14;;;;;;;26.15;13.20;;;;;;;-14.84;67.73;100122.06;1746070;82;21126;-65
2021/01/19 06:32:47;;;;;;;28.85;14.07;;;;;;;-14.82;67.55;100130.12;1746320;82;21617;-66
2021/01/19 06:35:20;;;;;;;30.10;14.50;;;;;;;-14.83;67.40;100128.45;1746174;81;21177;-65
2021/01/19 06:37:52;;;;;;;27.67;14.93;;;;;;;-14.82;67.32;100131.87;1746166;82;21170;-65
2021/01/19 06:40:23;;;;;;;22.05;10.40;;;;;;;-14.82;67.17;100133.16;1746105;81;21365;-65
2021/01/19 06:43:02;;;;;;;27.42;15.05;;;;;;;-14.77;67.08;100147.46;1746055;82;21869;-65
2021/01/19 06:45:31;;;;;;;30.62;16.93;;;;;;;-14.81;66.97;100139.50;1746036;82;21248;-65
2021/01/19 06:48:02;;;;;;;29.45;14.93;;;;;;;-14.77;67.01;100140.20;1746234;82;21166;-66
2021/01/19 06:50:38;;;;;;;28.47;13.65;;;;;;;-14.75;66.95;100144.36;1746439;81;21198;-65
2021/01/19 06:53:43;;;;;;;32.40;16.23;;;;;;;-14.73;66.83;100149.00;1746208;82;21210;-66
2021/01/19 06:56:16;;;;;;;26.70;17.07;;;;;;;-14.75;66.96;100149.52;1727360;82;21215;-66
2021/01/19 06:58:55;;;;;;;24.98;11.30;;;;;;;-14.68;66.82;100144.88;1746297;81;21161;-68
2021/01/19 07:01:28;;;;;;;31.15;16.27;;;;;;;-14.64;66.64;100151.55;1738127;82;21134;-68
2021/01/19 07:04:22;;;;;;;26.65;13.55;;;;;;;-14.64;66.70;100154.12;1735932;82;21156;-67
2021/01/19 07:07:06;;;;;;;22.10;14.70;;;;;;;-14.57;66.55;100154.63;1736168;82;24225;-66
2021/01/19 07:10:05;;;;;;;19.52;13.83;;;;;;;-14.56;66.53;100160.17;1735814;82;21186;-65
2021/01/19 07:12:55;;;;;;;32.55;16.27;;;;;;;-14.49;66.46;100162.37;1735863;82;21028;-65
2021/01/19 07:16:03;;;;;;;36.65;16.10;;;;;;;-14.49;66.35;100164.11;1735757;82;21166;-66
2021/01/19 07:18:58;;;;;;;28.42;15.80;;;;;;;-14.49;66.40;100154.63;1737756;82;21584;-64
2021/01/19 07:21:42;;;;;;;37.75;14.93;;;;;;;-14.47;66.28;100158.39;1733847;82;21242;-65
2021/01/19 07:24:17;;;;;;;39.35;19.12;;;;;;;-14.36;66.38;100163.38;1735246;82;21167;-63
2021/01/19 07:26:46;;;;;;;38.53;16.55;;;;;;;-14.21;66.53;100159.95;1736147;82;21183;-65
2021/01/19 07:29:17;;;;;;;33.00;16.95;;;;;;;-13.96;66.51;100160.75;1736019;82;21036;-66
2021/01/19 07:31:44;;;;;;;27.55;14.03;;;;;;;-13.86;66.10;100161.08;1736184;82;21119;-64
2021/01/19 07:34:13;;;;;;;30.48;15.55;;;;;;;-13.82;65.87;100160.82;1735979;82;21386;-65
2021/01/19 07:36:41;;;;;;;32.00;17.42;;;;;;;-13.73;65.79;100162.06;1691649;82;21601;-67
2021/01/19 07:39:15;;;;;;;29.77;15.53;;;;;;;-13.69;65.61;100154.95;1741919;82;21783;-64
2021/01/19 07:41:44;;;;;;;20.97;11.05;;;;;;;-13.67;65.50;100155.27;1741931;82;21821;-64
2021/01/19 07:44:24;;;;;;;17.70;9.60;;;;;;;-13.75;65.26;100163.42;1741801;82;21105;-68
2021/01/19 07:46:53;;;;;;;21.97;13.67;;;;;;;-13.87;65.23;100170.58;1739476;82;22446;-65
2021/01/19 07:49:24;;;;;;;19.33;11.97;;;;;;;-14.00;65.44;100161.00;1741826;82;21637;-64
2021/01/19 07:51:52;;;;;;;15.77;10.17;;;;;;;-14.04;65.79;100157.73;1721808;82;21304;-64
2021/01/19 07:54:31;;;;;;;26.87;12.43;;;;;;;-14.09;65.88;100173.94;1722643;82;21584;-65
2021/01/19 07:57:15;;;;;;;17.10;10.23;;;;;;;-14.21;66.08;100162.98;1741671;82;21122;-67
2021/01/19 07:59:44;;;;;;;12.58;8.40;;;;;;;-14.27;66.42;100172.34;1741947;81;21374;-65
2021/01/19 08:02:23;;;;;;;21.83;10.13;;;;;;;-14.35;66.58;100174.06;1725068;82;21049;-66
2021/01/19 08:05:02;;;;;;;14.50;8.60;;;;;;;-14.38;66.67;100178.11;1726268;83;21768;-65
2021/01/19 08:07:42;;;;;;;20.82;11.38;;;;;;;-14.34;66.85;100173.16;1725452;83;21806;-64
2021/01/19 08:10:33;;;;;;;13.03;7.13;;;;;;;-14.33;66.92;100172.66;1687515;84;21950;-65
2021/01/19 08:13:02;;;;;;;20.00;12.37;;;;;;;-14.36;67.06;100178.03;1700671;84;22332;-64
2021/01/19 08:15:33;;;;;;;11.30;8.55;;;;;;;-14.40;67.15;100165.75;1714552;83;21427;-65
2021/01/19 08:18:02;;;;;;;17.63;7.80;;;;;;;-14.38;67.39;100181.14;1706577;83;21615;-71
2021/01/19 08:20:34;;;;;;;11.08;6.97;;;;;;;-14.38;67.44;100181.14;1701603;84;21714;-65
2021/01/19 08:23:24;;;;;;;16.60;7.55;;;;;;;-14.38;67.33;100174.69;1704578;84;21175;-66
2021/01/19 08:25:51;;;;;;;24.10;12.78;;;;;;;-14.43;67.41;100170.25;1704615;84;21262;-67
2021/01/19 08:28:19;;;;;;;14.78;9.40;;;;;;;-14.43;67.68;100177.52;1709544;83;21156;-65
2021/01/19 08:30:47;;;;;;;18.85;8.73;;;;;;;-14.41;67.64;100179.57;1663998;84;21021;-66
2021/01/19 08:33:15;;;;;;;20.70;11.73;;;;;;;-14.43;67.78;100176.70;1704502;84;21226;-64
2021/01/19 08:35:43;;;;;;;18.23;7.78;;;;;;;-14.46;67.79;100181.56;1680644;84;21168;-66
2021/01/19 08:38:11;;;;;;;17.27;9.43;;;;;;;-14.47;67.99;100179.05;1686496;83;22627;-66
2021/01/19 08:40:40;;;;;;;18.92;11.08;;;;;;;-14.50;68.12;100185.22;1696837;83;21245;-66
2021/01/19 08:43:09;;;;;;;17.45;10.63;;;;;;;-14.55;68.12;100174.75;1719352;83;21012;-65
2021/01/19 08:45:39;;;;;;;31.15;16.65;;;;;;;-14.54;68.37;100177.27;1719450;83;21007;-65
2021/01/19 08:48:08;;;;;;;16.57;10.70;;;;;;;-14.45;68.58;100176.78;1709109;83;22608;-65
2021/01/19 08:50:40;;;;;;;20.55;10.80;;;;;;;-14.31;68.64;100169.55;1713601;83;21455;-64
2021/01/19 08:53:14;;;;;;;16.80;9.53;;;;;;;-14.19;68.40;100168.43;1704587;84;21545;-66
2021/01/19 08:55:44;;;;;;;14.63;8.15;;;;;;;-14.03;68.32;100168.90;1704571;84;21292;-65
2021/01/19 08:58:19;;;;;;;13.62;7.08;;;;;;;-13.99;67.65;100169.11;1704631;84;21178;-64
2021/01/19 09:00:48;;;;;;;20.55;10.55;;;;;;;-14.06;67.38;100160.88;1711186;82;21197;-66
2021/01/19 09:03:17;;;;;;;16.87;9.80;;;;;;;-14.11;67.36;100165.45;1707152;83;21674;-65
2021/01/19 09:05:47;;;;;;;17.33;11.00;;;;;;;-14.15;67.27;100164.77;1715861;83;21392;-66
2021/01/19 09:08:18;;;;;;;14.65;9.03;;;;;;;-14.16;67.33;100174.75;1722340;82;21214;-64
2021/01/19 09:10:45;;;;;;;12.13;8.57;;;;;;;-14.09;67.28;100169.23;1713182;83;21172;-64
2021/01/19 09:13:13;;;;;;;16.87;9.37;;;;;;;-14.05;67.18;100156.55;1740958;82;21384;-67
2021/01/19 09:15:44;;;;;;;15.90;8.17;;;;;;;-14.02;67.15;100158.95;1741084;82;22654;-66
2021/01/19 09:18:13;;;;;;;21.03;9.20;;;;;;;-14.01;67.00;100163.20;1732116;82;21322;-65
2021/01/19 09:20:44;;;;;;;11.10;6.47;;;;;;;-14.02;66.88;100156.36;1705830;84;21433;-66
2021/01/19 09:23:16;;;;;;;14.40;10.82;;;;;;;-14.05;66.82;100161.22;1705912;84;28591;-65
2021/01/19 09:25:45;;;;;;;17.57;12.13;;;;;;;-14.08;66.85;100157.53;1705753;84;21138;-65
2021/01/19 09:28:14;;;;;;;21.77;11.23;;;;;;;-14.08;66.86;100160.56;1717105;82;21436;-65
2021/01/19 09:30:42;;;;;;;22.60;11.70;;;;;;;-14.10;66.79;100155.50;1721664;82;21258;-65
2021/01/19 09:33:13;;;;;;;24.93;12.83;;;;;;;-14.05;66.91;100150.09;1703835;83;21865;-66
2021/01/19 09:35:41;;;;;;;21.07;12.83;;;;;;;-13.85;67.10;100141.59;1727877;82;21405;-65
2021/01/19 09:38:21;;;;;;;15.80;11.57;;;;;;;-13.61;66.99;100139.38;1705852;84;21919;-67
2021/01/19 09:40:49;;;;;;;14.73;10.90;;;;;;;-13.40;66.89;100138.17;1723344;83;21505;-65
2021/01/19 09:43:17;;;;;;;21.67;10.87;;;;;;;-13.19;66.39;100143.04;1683107;83;21248;-66
2021/01/19 09:45:45;;;;;;;18.63;11.20;;;;;;;-13.16;66.10;100136.38;1736382;82;21946;-64
2021/01/19 09:48:13;;;;;;;18.40;11.30;;;;;;;-13.08;65.83;100138.02;1733262;82;21457;-66
2021/01/19 09:50:41;;;;;;;21.97;12.13;;;;;;;-13.03;65.62;100139.88;1733389;82;21393;-65
2021/01/19 09:53:11;;;;;;;17.93;11.73;;;;;;;-13.01;65.67;100133.70;1710115;82;21430;-65
2021/01/19 09:55:39;;;;;;;17.03;9.83;;;;;;;-12.88;65.56;100127.33;1704536;83;21369;-66
2021/01/19 09:58:06;;;;;;;21.13;12.17;;;;;;;-12.69;65.46;100136.95;1717092;83;21662;-64
2021/01/19 10:03:17;;;;;;;19.97;11.27;;;;;;;-12.33;64.52;100137.78;1883814;76;22792;-71
2021/01/19 10:06:06;;;;;;;20.13;13.33;;;;;;;-12.38;63.87;100137.23;1797591;78;21038;-68
2021/01/19 10:08:38;;;;;;;21.90;12.03;;;;;;;-12.37;63.85;100132.88;1829346;77;21428;-67
2021/01/19 10:11:06;;;;;;;18.93;9.00;;;;;;;-12.28;63.60;100128.42;1829587;78;21746;-65
2021/01/19 10:13:34;;;;;;;17.97;11.23;;;;;;;-12.31;63.18;100126.00;1844879;77;21317;-66
2021/01/19 10:16:05;;;;;;;17.53;11.90;;;;;;;-12.44;62.94;100127.23;1862679;77;21311;-66
2021/01/19 10:18:33;;;;;;;21.77;11.30;;;;;;;-12.57;63.14;100106.91;1863098;77;21204;-65
2021/01/19 10:21:01;;;;;;;20.70;12.77;;;;;;;-12.50;63.37;100112.06;1861572;77;22104;-67
2021/01/19 10:23:32;;;;;;;16.47;11.47;;;;;;;-12.52;63.25;100113.47;1861255;77;21870;-66
2021/01/19 10:26:09;;;;;;;20.90;12.03;;;;;;;-12.45;63.64;100106.13;1863495;77;21287;-65
2021/01/19 10:28:40;;;;;;;17.67;11.03;;;;;;;-12.32;63.74;100103.64;1863385;77;21877;-66
2021/01/19 10:31:21;;;;;;;20.60;13.30;;;;;;;-12.13;63.66;100095.08;1856251;77;21214;-65
2021/01/19 10:34:02;;;;;;;15.90;10.77;;;;;;;-11.96;63.38;100094.83;1839149;77;21234;-65
2021/01/19 10:36:33;;;;;;;17.57;11.73;;;;;;;-11.77;62.98;100093.19;1860890;77;21414;-64
2021/01/19 10:39:07;;;;;;;15.20;9.50;;;;;;;-11.71;62.75;100088.88;1863352;77;21308;-64
2021/01/19 10:41:34;;;;;;;18.77;12.03;;;;;;;-11.66;62.38;100087.65;1839555;77;21234;-65
2021/01/19 10:44:04;;;;;;;19.23;12.70;;;;;;;-11.77;62.13;100086.70;1829278;78;21423;-64
2021/01/19 10:46:33;;;;;;;21.53;12.50;;;;;;;-11.76;62.51;100077.53;1829595;78;21353;-65
2021/01/19 10:49:06;;;;;;;21.83;11.10;;;;;;;-11.77;62.24;100079.75;1833299;77;21941;-68
2021/01/19 10:51:34;;;;;;;12.80;9.25;;;;;;;-11.71;62.38;100083.22;1769147;80;22061;-65
2021/01/19 10:54:13;;;;;;;20.83;13.70;;;;;;;-11.66;62.16;100085.05;1775741;80;21002;-67
2021/01/19 10:56:42;;;;;;;24.73;12.37;;;;;;;-11.58;62.42;100077.59;1791279;78;21422;-65
2021/01/19 10:59:11;;;;;;;23.60;12.30;;;;;;;-11.23;62.01;100080.92;1762769;80;21996;-65
2021/01/19 11:01:39;;;;;;;19.87;12.60;;;;;;;-11.23;62.01;100080.92;1789808;80;21528;-65
2021/01/19 11:04:08;;;;;;;22.10;13.17;;;;;;;-11.23;61.67;100077.03;1786274;80;21427;-65
2021/01/19 11:06:37;;;;;;;24.03;13.77;;;;;;;-11.30;61.47;100077.06;1786947;80;21639;-66
2021/01/19 11:09:05;;;;;;;27.30;12.30;;;;;;;-11.27;61.48;100072.48;1783718;78;21464;-66
2021/01/19 11:11:37;;;;;;;19.37;10.90;;;;;;;-11.15;61.13;100058.70;1801631;78;22716;-65
2021/01/19 11:14:05;;;;;;;18.53;10.90;;;;;;;-11.12;61.28;100052.45;1808255;78;21826;-64
2021/01/19 11:16:39;;;;;;;16.33;13.20;;;;;;;-10.95;61.16;100050.86;1792777;79;21524;-66
2021/01/19 11:19:11;;;;;;;10.75;7.83;;;;;;;-10.95;61.16;100050.86;1803617;79;21954;-67
2021/01/19 11:21:40;;;;;;;21.17;13.53;;;;;;;-10.79;61.18;100044.95;1797690;79;21235;-67
2021/01/19 11:24:09;;;;;;;15.73;10.67;;;;;;;-10.73;60.63;100057.52;1787134;78;21627;-67
2021/01/19 11:26:39;;;;;;;11.17;8.57;;;;;;;-10.73;60.63;100071.81;1776985;80;21852;-65
2021/01/19 11:29:08;;;;;;;19.20;12.03;;;;;;;-10.83;60.26;100054.36;1758045;80;21860;-67